createdAt,value
2023-03-07T00:02:05.534Z,2.14
2023-03-07T00:04:33.238Z,2.14
2023-03-07T00:07:01.211Z,2.17
2023-03-07T00:09:30.343Z,2.21
2023-03-07T00:11:58.056Z,2.14
2023-03-07T00:14:25.733Z,2.21
2023-03-07T00:16:53.462Z,2.24
2023-03-07T00:19:21.175Z,2.23
2023-03-07T00:21:48.882Z,2.26
2023-03-07T00:24:16.598Z,2.23
2023-03-07T00:26:45.728Z,2.23
2023-03-07T00:29:13.440Z,2.26
2023-03-07T00:31:41.221Z,2.23
2023-03-07T00:34:08.992Z,2.23
2023-03-07T00:36:36.724Z,2.23
2023-03-07T00:39:04.642Z,2.28
2023-03-07T00:41:32.494Z,2.23
2023-03-07T00:44:01.605Z,2.32
2023-03-07T00:46:29.388Z,2.29
2023-03-07T00:48:57.428Z,2.23
2023-03-07T00:51:25.626Z,2.19
2023-03-07T00:53:53.515Z,2.13
2023-03-07T00:56:23.455Z,2.09
2023-03-07T00:58:52.371Z,2.02
2023-03-07T01:01:23.625Z,2.04
2023-03-07T01:03:53.558Z,1.95
2023-03-07T01:06:23.663Z,1.89
2023-03-07T01:08:52.221Z,1.90
2023-03-07T01:11:20.020Z,1.92
2023-03-07T01:13:48.047Z,1.96
2023-03-07T01:16:18.430Z,1.94
2023-03-07T01:18:50.744Z,1.89
2023-03-07T01:21:20.701Z,1.83
2023-03-07T01:23:49.842Z,1.79
2023-03-07T01:26:19.806Z,1.78
2023-03-07T01:28:47.892Z,1.78
2023-03-07T01:31:15.714Z,1.73
2023-03-07T01:33:43.420Z,1.70
2023-03-07T01:36:21.713Z,1.69
2023-03-07T01:38:50.553Z,1.70
2023-03-07T01:41:18.435Z,1.73
2023-03-07T01:43:48.861Z,1.76
2023-03-07T01:46:49.306Z,1.75
2023-03-07T01:49:23.434Z,1.75
2023-03-07T01:52:04.009Z,1.72
2023-03-07T01:54:35.128Z,1.75
2023-03-07T01:57:04.515Z,1.75
2023-03-07T01:59:35.400Z,1.72
2023-03-07T02:02:07.405Z,1.74
2023-03-07T02:04:42.714Z,1.70
2023-03-07T02:07:12.276Z,1.67
2023-03-07T02:09:40.234Z,1.70
2023-03-07T02:12:08.957Z,1.70
2023-03-07T02:14:36.873Z,1.64
2023-03-07T02:17:04.957Z,1.63
2023-03-07T02:19:54.382Z,1.65
2023-03-07T02:22:24.073Z,1.65
2023-03-07T02:24:56.386Z,1.65
2023-03-07T02:27:26.794Z,1.65
2023-03-07T02:29:54.651Z,1.66
2023-03-07T02:32:23.199Z,1.67
2023-03-07T02:34:51.054Z,1.66
2023-03-07T02:37:26.405Z,1.66
2023-03-07T02:39:55.858Z,1.63
2023-03-07T02:42:27.742Z,1.56
2023-03-07T02:45:09.985Z,1.51
2023-03-07T02:47:39.143Z,1.48
2023-03-07T02:50:09.524Z,1.45
2023-03-07T02:52:40.248Z,1.45
2023-03-07T02:55:09.252Z,1.55
2023-03-07T02:57:41.845Z,1.51
2023-03-07T03:00:12.076Z,1.57
2023-03-07T03:02:39.986Z,1.62
2023-03-07T03:05:08.720Z,1.64
2023-03-07T03:07:36.427Z,1.66
2023-03-07T03:10:04.455Z,1.63
2023-03-07T03:12:33.547Z,1.69
2023-03-07T03:15:03.068Z,1.72
2023-03-07T03:17:30.966Z,1.76
2023-03-07T03:19:58.726Z,1.76
2023-03-07T03:22:26.499Z,1.78
2023-03-07T03:24:54.359Z,1.80
2023-03-07T03:27:22.134Z,1.82
2023-03-07T03:29:55.205Z,1.82
2023-03-07T03:32:24.724Z,1.87
2023-03-07T03:34:52.530Z,1.89
2023-03-07T03:37:20.244Z,1.87
2023-03-07T03:39:48.013Z,1.81
2023-03-07T03:42:15.741Z,1.74
2023-03-07T03:44:43.465Z,1.81
2023-03-07T03:47:11.212Z,1.79
2023-03-07T03:49:41.508Z,1.83
2023-03-07T03:52:10.507Z,1.82
2023-03-07T03:54:38.204Z,1.82
2023-03-07T03:57:06.010Z,1.83
2023-03-07T03:59:33.769Z,1.82
2023-03-07T04:02:01.637Z,1.86
2023-03-07T04:04:34.322Z,1.91
2023-03-07T04:07:04.670Z,1.87
2023-03-07T04:09:33.405Z,1.85
2023-03-07T04:12:01.188Z,1.81
2023-03-07T04:14:29.013Z,1.82
2023-03-07T04:16:57.241Z,1.84
2023-03-07T04:19:24.942Z,1.79
2023-03-07T04:21:52.908Z,1.73
2023-03-07T04:24:22.751Z,1.75
2023-03-07T04:26:50.700Z,1.68
2023-03-07T04:29:18.436Z,1.67
2023-03-07T04:31:54.098Z,1.57
2023-03-07T04:34:22.113Z,1.49
2023-03-07T04:36:50.217Z,1.55
2023-03-07T04:39:18.450Z,1.45
2023-03-07T04:41:48.185Z,1.42
2023-03-07T04:44:18.726Z,1.44
2023-03-07T04:46:46.418Z,1.36
2023-03-07T04:49:14.215Z,1.28
2023-03-07T04:51:44.022Z,1.28
2023-03-07T04:54:12.893Z,1.29
2023-03-07T04:56:41.789Z,1.26
2023-03-07T04:59:12.891Z,1.27
2023-03-07T05:01:41.435Z,1.23
2023-03-07T05:04:09.609Z,1.25
2023-03-07T05:06:39.248Z,1.26
2023-03-07T05:09:07.177Z,1.22
2023-03-07T05:11:34.928Z,1.19
2023-03-07T05:14:02.752Z,1.19
2023-03-07T05:16:33.531Z,1.23
2023-03-07T05:19:02.096Z,1.20
2023-03-07T05:21:32.001Z,1.24
2023-03-07T05:23:59.821Z,1.22
2023-03-07T05:26:27.854Z,1.22
2023-03-07T05:28:55.575Z,1.22
2023-03-07T05:31:23.336Z,1.30
2023-03-07T05:33:52.565Z,1.36
2023-03-07T05:36:20.269Z,1.42
2023-03-07T05:38:48.204Z,1.40
2023-03-07T05:41:17.337Z,1.44
2023-03-07T05:43:45.427Z,1.44
2023-03-07T05:46:13.383Z,1.47
2023-03-07T05:48:41.449Z,1.51
2023-03-07T05:51:10.569Z,1.50
2023-03-07T05:53:38.420Z,1.50
2023-03-07T05:56:07.062Z,1.50
2023-03-07T05:58:36.840Z,1.57
2023-03-07T06:01:05.128Z,1.59
2023-03-07T06:03:33.880Z,1.58
2023-03-07T06:06:01.601Z,1.63
2023-03-07T06:08:30.724Z,1.68
2023-03-07T06:10:58.524Z,1.71
2023-03-07T06:13:27.990Z,1.90
2023-03-07T06:15:56.564Z,1.95
2023-03-07T06:18:26.790Z,2.03
2023-03-07T06:20:58.760Z,2.14
2023-03-07T06:23:28.390Z,2.14
2023-03-07T06:25:58.278Z,2.23
2023-03-07T06:28:26.350Z,2.27
2023-03-07T06:30:54.477Z,2.36
2023-03-07T06:33:22.461Z,2.43
2023-03-07T06:35:50.221Z,2.39
2023-03-07T06:38:18.822Z,2.46
2023-03-07T06:40:46.592Z,2.51
2023-03-07T06:43:16.003Z,2.58
2023-03-07T06:45:43.705Z,2.53
2023-03-07T06:48:12.157Z,2.59
2023-03-07T06:50:41.101Z,2.60
2023-03-07T06:53:08.883Z,2.62
2023-03-07T06:55:36.812Z,2.68
2023-03-07T06:58:04.817Z,2.69
2023-03-07T07:00:34.048Z,2.68
2023-03-07T07:03:01.992Z,2.70
2023-03-07T07:05:29.852Z,2.76
2023-03-07T07:07:57.753Z,2.81
2023-03-07T07:10:25.650Z,2.91
2023-03-07T07:12:56.616Z,2.96
2023-03-07T07:15:24.864Z,3.01
2023-03-07T07:17:54.416Z,3.10
2023-03-07T07:20:23.265Z,3.17
2023-03-07T07:22:51.126Z,3.27
2023-03-07T07:25:18.923Z,3.36
2023-03-07T07:27:47.470Z,3.38
2023-03-07T07:30:15.647Z,3.47
2023-03-07T07:32:44.884Z,3.67
2023-03-07T07:35:14.453Z,3.68
2023-03-07T07:37:42.355Z,3.76
2023-03-07T07:40:12.247Z,3.84
2023-03-07T07:42:40.177Z,3.83
2023-03-07T07:45:18.599Z,3.97
2023-03-07T07:47:49.464Z,4.00
2023-03-07T07:50:19.665Z,4.05
2023-03-07T07:52:47.761Z,3.96
2023-03-07T07:55:15.665Z,4.00
2023-03-07T07:57:45.046Z,3.95
2023-03-07T08:00:19.241Z,4.07
2023-03-07T08:02:47.037Z,4.24
2023-03-07T08:05:14.732Z,4.26
2023-03-07T08:07:44.098Z,4.31
2023-03-07T08:10:15.817Z,4.35
2023-03-07T08:12:44.084Z,4.70
2023-03-07T08:15:13.572Z,4.78
2023-03-07T08:17:41.297Z,4.84
2023-03-07T08:20:10.559Z,4.77
2023-03-07T08:22:38.713Z,4.87
2023-03-07T08:25:09.265Z,4.93
2023-03-07T08:27:37.005Z,4.89
2023-03-07T08:30:05.361Z,5.05
2023-03-07T08:32:33.192Z,5.24
2023-03-07T08:35:00.987Z,5.36
2023-03-07T08:37:28.730Z,5.33
2023-03-07T08:39:56.457Z,5.37
2023-03-07T08:42:25.703Z,5.37
2023-03-07T08:44:53.462Z,5.45
2023-03-07T08:47:21.141Z,5.59
2023-03-07T08:49:48.866Z,5.56
2023-03-07T08:52:16.622Z,5.69
2023-03-07T08:54:44.352Z,5.72
2023-03-07T08:57:12.068Z,5.46
2023-03-07T08:59:41.107Z,5.67
2023-03-07T09:02:11.244Z,5.70
2023-03-07T09:04:39.633Z,5.74
2023-03-07T09:07:07.609Z,5.97
2023-03-07T09:09:35.393Z,5.75
2023-03-07T09:12:03.244Z,5.83
2023-03-07T09:14:31.171Z,5.81
2023-03-07T09:17:00.323Z,6.03
2023-03-07T09:19:28.114Z,6.11
2023-03-07T09:21:55.889Z,6.34
2023-03-07T09:24:23.595Z,6.55
2023-03-07T09:26:52.104Z,6.52
2023-03-07T09:29:19.938Z,6.37
2023-03-07T09:31:47.883Z,6.38
2023-03-07T09:34:17.117Z,6.32
2023-03-07T09:36:44.866Z,6.40
2023-03-07T09:39:14.514Z,6.37
2023-03-07T09:42:11.161Z,6.28
2023-03-07T09:44:55.583Z,6.48
2023-03-07T09:48:21.744Z,6.80
2023-03-07T09:50:54.519Z,6.56
2023-03-07T09:53:32.693Z,6.75
2023-03-07T09:56:04.034Z,6.77
2023-03-07T09:58:31.775Z,6.69
2023-03-07T10:01:01.929Z,6.48
2023-03-07T10:03:36.913Z,6.60
2023-03-07T10:06:14.407Z,6.82
2023-03-07T10:08:42.194Z,6.81
2023-03-07T10:11:26.490Z,6.81
2023-03-07T10:14:22.344Z,6.84
2023-03-07T10:16:55.123Z,6.83
2023-03-07T10:19:32.310Z,6.88
2023-03-07T10:22:06.371Z,6.70
2023-03-07T10:24:53.345Z,6.92
2023-03-07T10:27:26.689Z,7.29
2023-03-07T10:29:56.849Z,7.07
2023-03-07T10:32:33.296Z,7.16
2023-03-07T10:35:08.074Z,7.04
2023-03-07T10:37:46.324Z,7.00
2023-03-07T10:40:26.256Z,7.13
2023-03-07T10:42:55.202Z,7.25
2023-03-07T10:45:23.042Z,7.31
2023-03-07T10:47:50.813Z,7.47
2023-03-07T10:50:27.361Z,7.46
2023-03-07T10:52:58.426Z,7.91
2023-03-07T10:55:39.131Z,8.18
2023-03-07T10:58:22.225Z,8.22
2023-03-07T11:01:02.308Z,8.01
2023-03-07T11:03:49.694Z,8.00
2023-03-07T11:06:32.545Z,8.21
2023-03-07T11:09:19.412Z,8.50
2023-03-07T11:11:56.940Z,8.34
2023-03-07T11:14:25.560Z,8.48
2023-03-07T11:16:55.577Z,8.42
2023-03-07T11:19:36.605Z,8.19
2023-03-07T11:22:06.178Z,8.22
2023-03-07T11:24:39.576Z,8.05
2023-03-07T11:27:07.769Z,8.27
2023-03-07T11:29:35.545Z,8.45
2023-03-07T11:32:13.926Z,8.53
2023-03-07T11:34:48.242Z,8.40
2023-03-07T11:37:27.028Z,8.44
2023-03-07T11:40:04.818Z,8.81
2023-03-07T11:42:38.320Z,9.04
2023-03-07T11:45:20.938Z,8.83
2023-03-07T11:48:01.527Z,8.71
2023-03-07T11:50:33.045Z,8.68
2023-03-07T11:53:29.262Z,8.90
2023-03-07T11:56:13.245Z,8.84
2023-03-07T11:59:03.045Z,9.02
2023-03-07T12:01:38.516Z,9.17
2023-03-07T12:04:37.331Z,9.07
2023-03-07T12:07:14.304Z,8.87
2023-03-07T12:09:52.260Z,8.98
2023-03-07T12:12:34.482Z,9.27
2023-03-07T12:15:19.301Z,9.33
2023-03-07T12:18:00.614Z,8.87
2023-03-07T12:20:34.150Z,8.82
2023-03-07T12:23:09.815Z,9.05
2023-03-07T12:25:39.861Z,9.08
2023-03-07T12:28:16.834Z,9.22
2023-03-07T12:30:55.818Z,9.82
2023-03-07T12:33:30.642Z,10.02
2023-03-07T12:36:02.395Z,9.86
2023-03-07T12:38:38.755Z,9.65
2023-03-07T12:41:20.691Z,9.77
2023-03-07T12:43:52.974Z,10.00
2023-03-07T12:46:25.985Z,10.23
2023-03-07T12:48:59.426Z,10.31
2023-03-07T12:51:32.310Z,10.31
2023-03-07T12:54:04.998Z,9.76
2023-03-07T12:56:44.688Z,9.93
2023-03-07T12:59:15.671Z,10.58
2023-03-07T13:01:51.852Z,10.75
2023-03-07T13:04:24.347Z,10.39
2023-03-07T13:06:54.696Z,10.65
2023-03-07T13:09:25.044Z,10.49
2023-03-07T13:12:24.010Z,10.37
2023-03-07T13:14:54.940Z,10.07
2023-03-07T13:17:58.054Z,10.62
2023-03-07T13:20:44.798Z,10.70
2023-03-07T13:23:29.321Z,10.48
2023-03-07T13:26:00.255Z,10.34
2023-03-07T13:28:37.596Z,10.39
2023-03-07T13:31:35.076Z,10.46
2023-03-07T13:34:36.426Z,10.61
2023-03-07T13:37:49.268Z,10.70
2023-03-07T13:40:53.341Z,10.82
2023-03-07T13:43:59.608Z,10.94
2023-03-07T13:46:47.535Z,10.52
2023-03-07T13:49:38.762Z,10.61
2023-03-07T13:52:38.217Z,10.40
2023-03-07T13:55:19.627Z,10.50
2023-03-07T13:57:49.148Z,10.20
2023-03-07T14:00:25.994Z,10.52
2023-03-07T14:02:55.927Z,10.52
2023-03-07T14:05:24.019Z,10.48
2023-03-07T14:07:53.348Z,10.26
2023-03-07T14:10:27.855Z,10.22
2023-03-07T14:13:14.565Z,10.16
2023-03-07T14:15:53.316Z,10.17
2023-03-07T14:18:35.608Z,10.04
2023-03-07T14:21:12.369Z,10.04
2023-03-07T14:24:09.655Z,10.00
2023-03-07T14:26:39.962Z,9.98
2023-03-07T14:29:16.740Z,10.04
2023-03-07T14:31:44.966Z,10.00
2023-03-07T14:34:28.481Z,9.76
2023-03-07T14:36:58.640Z,10.02
2023-03-07T14:39:30.518Z,10.05
2023-03-07T14:42:10.272Z,10.31
2023-03-07T14:45:06.271Z,10.37
2023-03-07T14:47:48.566Z,9.93
2023-03-07T14:50:20.015Z,9.81
2023-03-07T14:52:49.683Z,9.60
2023-03-07T14:55:20.084Z,9.57
2023-03-07T14:57:52.836Z,9.66
2023-03-07T15:00:33.240Z,9.52
2023-03-07T15:03:07.447Z,9.45
2023-03-07T15:05:38.526Z,9.25
2023-03-07T15:08:19.097Z,9.07
2023-03-07T15:10:58.089Z,8.98
2023-03-07T15:13:30.062Z,8.92
2023-03-07T15:16:03.526Z,9.04
2023-03-07T15:18:36.569Z,8.97
2023-03-07T15:21:07.573Z,9.00
2023-03-07T15:23:36.031Z,9.00
2023-03-07T15:26:06.590Z,8.80
2023-03-07T15:28:36.919Z,8.62
2023-03-07T15:31:05.646Z,8.48
2023-03-07T15:33:34.583Z,8.38
2023-03-07T15:36:21.749Z,8.46
2023-03-07T15:38:51.248Z,8.40
2023-03-07T15:41:26.458Z,8.24
2023-03-07T15:44:16.547Z,8.21
2023-03-07T15:46:47.731Z,8.16
2023-03-07T15:49:24.013Z,8.22
2023-03-07T15:51:55.611Z,8.23
2023-03-07T15:54:33.317Z,8.23
2023-03-07T15:57:04.686Z,8.12
2023-03-07T15:59:39.942Z,8.15
2023-03-07T16:02:36.942Z,8.09
2023-03-07T16:05:09.283Z,7.87
2023-03-07T16:07:38.397Z,7.87
2023-03-07T16:10:06.847Z,7.83
2023-03-07T16:12:41.548Z,7.69
2023-03-07T16:15:17.137Z,7.63
2023-03-07T16:17:45.871Z,7.51
2023-03-07T16:20:17.552Z,7.37
2023-03-07T16:22:48.613Z,7.23
2023-03-07T16:25:20.556Z,7.06
2023-03-07T16:28:00.154Z,6.99
2023-03-07T16:30:30.883Z,6.84
2023-03-07T16:32:58.657Z,6.73
2023-03-07T16:35:28.935Z,6.53
2023-03-07T16:37:59.265Z,6.46
2023-03-07T16:40:30.093Z,6.40
2023-03-07T16:42:57.960Z,6.28
2023-03-07T16:45:27.910Z,6.27
2023-03-07T16:47:59.966Z,6.13
2023-03-07T16:50:31.222Z,6.01
2023-03-07T16:53:00.713Z,5.94
2023-03-07T16:55:28.754Z,5.86
2023-03-07T16:58:02.687Z,5.68
2023-03-07T17:00:30.794Z,5.59
2023-03-07T17:03:02.092Z,5.45
2023-03-07T17:05:36.680Z,5.31
2023-03-07T17:08:07.723Z,5.20
2023-03-07T17:10:35.602Z,5.07
2023-03-07T17:13:04.241Z,5.01
2023-03-07T17:15:33.141Z,4.91
2023-03-07T17:18:01.909Z,4.85
2023-03-07T17:20:44.402Z,4.72
2023-03-07T17:23:13.589Z,4.53
2023-03-07T17:25:41.369Z,4.48
2023-03-07T17:28:15.021Z,4.35
2023-03-07T17:30:45.809Z,4.25
2023-03-07T17:33:20.063Z,4.11
2023-03-07T17:35:48.113Z,3.98
2023-03-07T17:38:19.697Z,3.84
2023-03-07T17:40:47.437Z,3.69
2023-03-07T17:43:15.241Z,3.56
2023-03-07T17:45:42.925Z,3.42
2023-03-07T17:48:10.616Z,3.26
2023-03-07T17:50:38.317Z,3.11
2023-03-07T17:53:06.044Z,3.03
2023-03-07T17:55:35.130Z,2.92
2023-03-07T17:58:02.866Z,2.84
2023-03-07T18:00:30.576Z,2.72
2023-03-07T18:02:58.365Z,2.64
2023-03-07T18:05:27.917Z,2.50
2023-03-07T18:07:55.710Z,2.42
2023-03-07T18:10:23.520Z,2.33
2023-03-07T18:12:54.316Z,2.27
2023-03-07T18:15:27.671Z,2.19
2023-03-07T18:17:56.452Z,2.20
2023-03-07T18:20:28.471Z,2.11
2023-03-07T18:22:56.639Z,1.90
2023-03-07T18:25:25.693Z,1.82
2023-03-07T18:27:54.863Z,1.74
2023-03-07T18:30:25.191Z,1.72
2023-03-07T18:32:56.349Z,1.59
2023-03-07T18:35:24.473Z,1.48
2023-03-07T18:37:54.151Z,1.38
2023-03-07T18:40:26.226Z,1.32
2023-03-07T18:42:58.949Z,1.23
2023-03-07T18:45:28.292Z,1.21
2023-03-07T18:47:58.443Z,1.11
2023-03-07T18:50:26.233Z,1.12
2023-03-07T18:52:53.960Z,0.99
2023-03-07T18:55:22.028Z,1.02
2023-03-07T18:57:49.835Z,1.07
2023-03-07T19:00:19.902Z,1.16
2023-03-07T19:02:47.679Z,1.22
2023-03-07T19:05:15.520Z,1.29
2023-03-07T19:07:43.232Z,1.38
2023-03-07T19:10:12.322Z,1.40
2023-03-07T19:12:40.175Z,1.44
2023-03-07T19:15:08.739Z,1.38
2023-03-07T19:17:41.054Z,1.43
2023-03-07T19:20:10.378Z,1.51
2023-03-07T19:22:38.080Z,1.53
2023-03-07T19:25:07.652Z,1.64
2023-03-07T19:27:35.364Z,1.76
2023-03-07T19:30:03.330Z,1.91
2023-03-07T19:32:31.126Z,2.04
2023-03-07T19:35:06.425Z,2.21
2023-03-07T19:37:36.244Z,2.39
2023-03-07T19:40:04.207Z,2.55
2023-03-07T19:42:32.036Z,2.72
2023-03-07T19:45:00.787Z,2.91
2023-03-07T19:47:28.472Z,3.18
2023-03-07T19:49:58.483Z,3.29
2023-03-07T19:52:27.810Z,3.50
2023-03-07T19:54:55.999Z,3.57
2023-03-07T19:57:23.754Z,3.67
2023-03-07T19:59:56.271Z,3.72
2023-03-07T20:02:26.120Z,3.79
2023-03-07T20:04:55.382Z,3.84
2023-03-07T20:07:27.168Z,3.90
2023-03-07T20:09:56.327Z,3.96
2023-03-07T20:12:24.086Z,4.00
2023-03-07T20:14:51.826Z,4.01
2023-03-07T20:17:19.545Z,3.98
2023-03-07T20:19:51.460Z,3.98
2023-03-07T20:22:20.653Z,3.97
2023-03-07T20:24:50.479Z,3.95
2023-03-07T20:27:21.796Z,3.92
2023-03-07T20:29:49.916Z,3.96
2023-03-07T20:32:18.500Z,3.97
2023-03-07T20:34:46.743Z,4.03
2023-03-07T20:37:14.434Z,4.05
2023-03-07T20:39:43.669Z,4.08
2023-03-07T20:42:11.526Z,4.08
2023-03-07T20:44:40.625Z,4.06
2023-03-07T20:47:08.391Z,4.11
2023-03-07T20:49:36.203Z,4.15
2023-03-07T20:52:03.978Z,4.20
2023-03-07T20:54:33.954Z,4.18
2023-03-07T20:57:03.505Z,4.19
2023-03-07T20:59:31.263Z,4.16
2023-03-07T21:02:01.330Z,4.22
2023-03-07T21:04:30.261Z,4.20
2023-03-07T21:06:58.056Z,4.25
2023-03-07T21:09:25.876Z,4.29
2023-03-07T21:11:53.600Z,4.24
2023-03-07T21:14:21.470Z,4.24
2023-03-07T21:16:49.464Z,4.22
2023-03-07T21:19:18.683Z,4.26
2023-03-07T21:21:46.504Z,4.27
2023-03-07T21:24:15.428Z,4.29
2023-03-07T21:26:43.743Z,4.32
2023-03-07T21:29:13.695Z,4.32
2023-03-07T21:31:41.935Z,4.23
2023-03-07T21:34:13.915Z,4.21
2023-03-07T21:36:43.675Z,4.23
2023-03-07T21:39:12.617Z,4.22
2023-03-07T21:41:40.492Z,4.25
2023-03-07T21:44:08.474Z,4.25
2023-03-07T21:46:37.486Z,4.28
2023-03-07T21:49:05.272Z,4.27
2023-03-07T21:51:33.496Z,4.29
2023-03-07T21:54:02.746Z,4.37
2023-03-07T21:56:30.660Z,4.37
2023-03-07T21:58:58.532Z,4.39
2023-03-07T22:01:28.937Z,4.36
2023-03-07T22:03:59.085Z,4.30
2023-03-07T22:06:27.733Z,4.31
2023-03-07T22:08:55.781Z,4.23
2023-03-07T22:11:24.912Z,4.17
2023-03-07T22:13:52.793Z,4.15
2023-03-07T22:16:22.038Z,4.21
2023-03-07T22:18:54.217Z,4.12
2023-03-07T22:21:24.813Z,4.08
2023-03-07T22:23:57.417Z,4.06
2023-03-07T22:26:27.422Z,4.12
2023-03-07T22:28:55.687Z,4.05
2023-03-07T22:31:23.815Z,4.09
2023-03-07T22:33:51.652Z,4.06
2023-03-07T22:36:19.397Z,4.06
2023-03-07T22:38:47.733Z,4.00
2023-03-07T22:41:17.765Z,4.03
2023-03-07T22:43:46.955Z,3.99
2023-03-07T22:46:14.993Z,3.96
2023-03-07T22:48:42.772Z,3.95
2023-03-07T22:51:13.472Z,3.89
2023-03-07T22:53:41.338Z,3.84
2023-03-07T22:56:15.453Z,3.84
2023-03-07T22:58:43.193Z,3.86
2023-03-07T23:01:17.466Z,3.87
2023-03-07T23:03:45.173Z,3.87
2023-03-07T23:06:13.905Z,3.79
2023-03-07T23:08:45.682Z,3.77
2023-03-07T23:11:14.653Z,3.74
2023-03-07T23:13:42.633Z,3.73
2023-03-07T23:16:12.600Z,3.69
2023-03-07T23:18:42.358Z,3.64
2023-03-07T23:21:12.685Z,3.59
2023-03-07T23:23:42.167Z,3.62
2023-03-07T23:26:10.078Z,3.62
2023-03-07T23:28:37.785Z,3.60
2023-03-07T23:31:05.676Z,3.58
2023-03-07T23:33:33.775Z,3.55
2023-03-07T23:36:02.934Z,3.60
2023-03-07T23:38:30.671Z,3.52
2023-03-07T23:41:02.181Z,3.52
2023-03-07T23:43:30.009Z,3.47
2023-03-07T23:45:57.846Z,3.45
2023-03-07T23:48:25.649Z,3.36
2023-03-07T23:50:53.484Z,3.26
2023-03-07T23:53:22.652Z,3.25
2023-03-07T23:55:50.715Z,3.17
2023-03-07T23:58:18.507Z,3.13
